createdAt,value
2018-11-07T00:04:00.409Z,47.9
2018-11-07T00:08:58.419Z,47.9
2018-11-07T00:13:56.773Z,47.9
2018-11-07T00:18:55.285Z,47.9
2018-11-07T00:23:53.548Z,47.9
2018-11-07T00:28:51.709Z,47.9
2018-11-07T00:33:49.949Z,47.9
2018-11-07T00:38:48.099Z,47.9
2018-11-07T00:43:46.237Z,47.9
2018-11-07T00:48:44.391Z,48
2018-11-07T00:53:42.522Z,47.9
2018-11-07T00:58:40.801Z,47.9
2018-11-07T01:03:38.405Z,47.9
2018-11-07T01:08:37.052Z,47.9
2018-11-07T01:13:34.939Z,47.9
2018-11-07T01:18:33.489Z,47.9
2018-11-07T01:23:31.925Z,47.9
2018-11-07T01:28:30.502Z,47.9
2018-11-07T01:33:28.544Z,47.9
2018-11-07T01:38:27.060Z,47.9
2018-11-07T01:43:25.341Z,47.9
2018-11-07T01:48:23.787Z,47.9
2018-11-07T01:53:22.385Z,47.9
2018-11-07T01:58:20.721Z,47.9
2018-11-07T02:03:19.104Z,47.9
2018-11-07T02:08:17.406Z,47.9
2018-11-07T02:13:15.822Z,47.9
2018-11-07T02:18:13.869Z,47.9
2018-11-07T02:23:12.040Z,47.9
2018-11-07T02:28:10.648Z,47.9
2018-11-07T02:33:09.005Z,47.9
2018-11-07T02:38:07.366Z,47.9
2018-11-07T02:43:05.493Z,47.8
2018-11-07T02:48:03.960Z,47.8
2018-11-07T02:53:02.475Z,47.9
2018-11-07T02:58:01.020Z,47.8
2018-11-07T03:02:59.225Z,47.8
2018-11-07T03:07:57.343Z,47.8
2018-11-07T03:12:55.856Z,47.8
2018-11-07T03:17:53.639Z,47.8
2018-11-07T03:22:51.992Z,47.8
2018-11-07T03:27:50.009Z,47.8
2018-11-07T03:32:48.565Z,47.8
2018-11-07T03:37:47.008Z,47.8
2018-11-07T03:42:45.470Z,47.8
2018-11-07T03:47:43.367Z,47.8
2018-11-07T03:52:41.581Z,47.8
2018-11-07T03:57:39.641Z,47.8
2018-11-07T04:02:38.064Z,47.8
2018-11-07T04:07:36.367Z,47.8
2018-11-07T04:12:34.433Z,47.8
2018-11-07T04:17:32.810Z,47.8
2018-11-07T04:22:30.617Z,47.8
2018-11-07T04:27:29.272Z,47.8
2018-11-07T04:32:27.489Z,47.8
2018-11-07T04:37:26.177Z,47.8
2018-11-07T04:42:24.241Z,47.8
2018-11-07T04:47:22.520Z,47.8
2018-11-07T04:52:20.509Z,47.8
2018-11-07T04:57:18.531Z,47.8
2018-11-07T05:02:16.883Z,47.8
2018-11-07T05:07:14.488Z,47.8
2018-11-07T05:12:12.586Z,47.8
2018-11-07T05:17:10.586Z,47.8
2018-11-07T05:22:09.017Z,47.8
2018-11-07T05:27:07.413Z,47.8
2018-11-07T05:32:06.102Z,47.8
2018-11-07T05:37:04.682Z,47.8
2018-11-07T05:42:03.262Z,47.8
2018-11-07T05:47:01.277Z,47.8
2018-11-07T05:51:59.844Z,47.8
2018-11-07T05:56:57.976Z,47.9
2018-11-07T06:01:56.212Z,47.9
2018-11-07T06:06:54.769Z,47.8
2018-11-07T06:11:52.643Z,47.8
2018-11-07T06:16:50.434Z,47.9
2018-11-07T06:21:48.785Z,47.9
2018-11-07T06:26:47.168Z,47.9
2018-11-07T06:31:45.725Z,47.9
2018-11-07T06:36:43.958Z,47.9
2018-11-07T06:41:42.347Z,47.9
2018-11-07T06:46:40.785Z,47.9
2018-11-07T06:51:39.019Z,47.9
2018-11-07T06:56:37.082Z,47.9
2018-11-07T07:01:35.752Z,47.9
2018-11-07T07:06:34.018Z,47.9
2018-11-07T07:11:32.211Z,47.9
2018-11-07T07:16:30.866Z,47.9
2018-11-07T07:21:28.953Z,48
2018-11-07T07:26:26.975Z,48
2018-11-07T07:31:25.241Z,48
2018-11-07T07:36:23.699Z,48
2018-11-07T07:41:22.271Z,48
2018-11-07T07:46:20.696Z,48
2018-11-07T07:51:19.145Z,48
2018-11-07T07:56:17.208Z,48
2018-11-07T08:01:15.993Z,48.1
2018-11-07T08:06:14.440Z,48.1
2018-11-07T08:11:12.586Z,48.1
2018-11-07T08:16:10.736Z,48.1
2018-11-07T08:21:08.975Z,48.1
2018-11-07T08:26:07.024Z,48.2
2018-11-07T08:31:05.308Z,48.1
2018-11-07T08:36:03.404Z,48.2
2018-11-07T08:41:01.484Z,48.2
2018-11-07T08:45:59.778Z,48.1
2018-11-07T08:50:57.989Z,48.1
2018-11-07T08:55:56.459Z,48.1
2018-11-07T09:00:55.015Z,48.2
2018-11-07T09:05:53.403Z,48.2
2018-11-07T09:10:51.792Z,48.1
2018-11-07T09:15:49.849Z,48.2
2018-11-07T09:20:48.082Z,48.2
2018-11-07T09:25:46.015Z,48.2
2018-11-07T09:30:44.632Z,48.2
2018-11-07T09:35:43.050Z,48.2
2018-11-07T09:40:41.228Z,48.2
2018-11-07T09:45:39.414Z,48.2
2018-11-07T09:50:37.875Z,48.2
2018-11-07T09:55:36.428Z,48.3
2018-11-07T10:00:34.918Z,48.3
2018-11-07T10:05:33.260Z,48.3
2018-11-07T10:10:31.759Z,48.3
2018-11-07T10:15:29.925Z,48.3
2018-11-07T10:20:28.273Z,48.4
2018-11-07T10:25:26.994Z,48.4
2018-11-07T10:30:26.003Z,48.4
2018-11-07T10:35:24.272Z,48.5
2018-11-07T10:40:22.412Z,48.5
2018-11-07T10:45:20.703Z,48.6
2018-11-07T10:50:19.018Z,48.6
2018-11-07T10:55:17.327Z,48.6
2018-11-07T11:00:15.959Z,48.6
2018-11-07T11:05:14.567Z,48.7
2018-11-07T11:10:12.691Z,48.7
2018-11-07T11:15:10.972Z,48.8
2018-11-07T11:20:09.423Z,48.8
2018-11-07T11:25:08.039Z,48.8
2018-11-07T11:30:06.760Z,48.9
2018-11-07T11:35:05.791Z,49
2018-11-07T11:40:04.215Z,49
2018-11-07T11:45:02.949Z,49.1
2018-11-07T11:50:01.581Z,49.1
2018-11-07T11:55:00.341Z,49.1
2018-11-07T11:59:59.389Z,49.1
2018-11-07T12:04:57.739Z,49.1
2018-11-07T12:09:55.778Z,49.1
2018-11-07T12:14:54.028Z,49.2
2018-11-07T12:19:52.741Z,49.2
2018-11-07T12:24:50.916Z,49.2
2018-11-07T12:29:49.388Z,49.2
2018-11-07T12:34:48.097Z,49.2
2018-11-07T12:39:46.779Z,49.2
2018-11-07T12:44:45.295Z,49.2
2018-11-07T12:49:43.616Z,49.2
2018-11-07T12:54:42.338Z,49.2
2018-11-07T12:59:40.531Z,49.2
2018-11-07T13:04:39.154Z,49.1
2018-11-07T13:09:37.151Z,49.1
2018-11-07T13:14:35.502Z,49.1
2018-11-07T13:19:33.773Z,49.1
2018-11-07T13:24:32.071Z,49.1
2018-11-07T13:29:30.170Z,49.1
2018-11-07T13:34:28.750Z,49.1
2018-11-07T13:39:27.227Z,49
2018-11-07T13:44:25.548Z,49
2018-11-07T13:49:24.235Z,49
2018-11-07T13:54:22.980Z,49
2018-11-07T13:59:20.949Z,49
2018-11-07T14:04:19.614Z,49
2018-11-07T14:09:17.736Z,49
2018-11-07T14:14:16.477Z,49
2018-11-07T14:19:15.589Z,49
2018-11-07T14:24:14.029Z,49
2018-11-07T14:29:11.945Z,49
2018-11-07T14:34:10.717Z,49
2018-11-07T14:39:09.332Z,48.9
2018-11-07T14:44:08.051Z,48.9
2018-11-07T14:49:06.634Z,48.9
2018-11-07T14:54:05.024Z,48.8
2018-11-07T14:59:03.727Z,48.8
2018-11-07T15:04:02.206Z,48.8
2018-11-07T15:09:00.269Z,48.7
2018-11-07T15:13:58.478Z,48.7
2018-11-07T15:18:56.614Z,48.7
2018-11-07T15:23:55.219Z,48.7
2018-11-07T15:28:53.766Z,48.6
2018-11-07T15:33:52.335Z,48.6
2018-11-07T15:38:50.469Z,48.6
2018-11-07T15:43:48.892Z,48.5
2018-11-07T15:48:47.633Z,48.5
2018-11-07T15:53:46.298Z,48.5
2018-11-07T15:58:44.922Z,48.5
2018-11-07T16:03:43.570Z,48.5
2018-11-07T16:08:41.615Z,48.5
2018-11-07T16:13:40.254Z,48.5
2018-11-07T16:18:38.375Z,48.5
2018-11-07T16:23:36.855Z,48.5
2018-11-07T16:28:35.420Z,48.5
2018-11-07T16:33:33.678Z,48.5
2018-11-07T16:38:32.303Z,48.5
2018-11-07T16:43:30.813Z,48.5
2018-11-07T16:48:29.460Z,48.5
2018-11-07T16:53:27.899Z,48.4
2018-11-07T16:58:26.363Z,48.4
2018-11-07T17:03:24.898Z,48.4
2018-11-07T17:08:23.145Z,48.4
2018-11-07T17:13:21.328Z,48.4
2018-11-07T17:18:19.738Z,48.4
2018-11-07T17:23:19.017Z,48.4
2018-11-07T17:28:16.682Z,48.4
2018-11-07T17:33:14.895Z,48.4
2018-11-07T17:38:13.193Z,48.4
2018-11-07T17:43:11.441Z,48.4
2018-11-07T17:48:10.026Z,48.5
2018-11-07T17:53:08.825Z,48.5
2018-11-07T17:58:07.412Z,48.5
2018-11-07T18:03:05.612Z,48.5
2018-11-07T18:08:04.144Z,48.5
2018-11-07T18:13:02.214Z,48.4
2018-11-07T18:18:00.395Z,48.5
2018-11-07T18:22:58.826Z,48.5
2018-11-07T18:27:56.927Z,48.5
2018-11-07T18:32:55.491Z,48.5
2018-11-07T18:37:53.702Z,48.5
2018-11-07T18:42:52.282Z,48.5
2018-11-07T18:47:50.346Z,48.5
2018-11-07T18:52:48.486Z,48.5
2018-11-07T18:57:46.301Z,48.5
2018-11-07T19:02:44.780Z,48.5
2018-11-07T19:07:43.237Z,48.5
2018-11-07T19:12:41.705Z,48.5
2018-11-07T19:17:40.121Z,48.5
2018-11-07T19:22:38.046Z,48.5
2018-11-07T19:27:36.191Z,48.5
2018-11-07T19:32:34.718Z,48.6
2018-11-07T19:37:33.191Z,48.6
2018-11-07T19:42:31.699Z,48.5
2018-11-07T19:47:30.054Z,48.6
2018-11-07T19:52:27.939Z,48.5
2018-11-07T19:57:25.671Z,48.5
2018-11-07T20:02:23.944Z,48.5
2018-11-07T20:07:22.671Z,48.5
2018-11-07T20:12:20.668Z,48.5
2018-11-07T20:17:18.833Z,48.6
2018-11-07T20:22:17.339Z,48.6
2018-11-07T20:27:15.794Z,48.6
2018-11-07T20:32:14.309Z,48.6
2018-11-07T20:37:12.242Z,48.6
2018-11-07T20:42:11.220Z,48.6
2018-11-07T20:47:09.560Z,48.6
2018-11-07T20:52:07.803Z,48.6
2018-11-07T20:57:06.333Z,48.6
2018-11-07T21:02:04.235Z,48.5
2018-11-07T21:07:02.786Z,48.5
2018-11-07T21:12:00.810Z,48.5
2018-11-07T21:16:59.042Z,48.5
2018-11-07T21:21:57.819Z,48.5
2018-11-07T21:26:56.538Z,48.5
2018-11-07T21:31:54.833Z,48.5
2018-11-07T21:36:53.349Z,48.5
2018-11-07T21:41:51.184Z,48.4
2018-11-07T21:46:49.643Z,48.4
2018-11-07T21:51:48.143Z,48.5
2018-11-07T21:56:46.529Z,48.4
2018-11-07T22:01:44.775Z,48.4
2018-11-07T22:06:43.182Z,48.4
2018-11-07T22:11:41.702Z,48.4
2018-11-07T22:16:40.032Z,48.4
2018-11-07T22:21:37.915Z,48.4
2018-11-07T22:26:36.104Z,48.4
2018-11-07T22:31:33.966Z,48.4
2018-11-07T22:36:32.103Z,48.4
2018-11-07T22:41:30.609Z,48.4
2018-11-07T22:46:29.037Z,48.4
2018-11-07T22:51:27.744Z,48.4
2018-11-07T22:56:26.223Z,48.4
2018-11-07T23:01:24.662Z,48.4
2018-11-07T23:06:22.893Z,48.5
2018-11-07T23:11:20.949Z,48.5
2018-11-07T23:16:19.367Z,48.5
2018-11-07T23:21:17.828Z,48.5
2018-11-07T23:26:15.920Z,48.5
2018-11-07T23:31:14.084Z,48.5
2018-11-07T23:36:12.692Z,48.5
2018-11-07T23:41:10.622Z,48.5
2018-11-07T23:46:09.237Z,48.5
2018-11-07T23:51:07.260Z,48.5
2018-11-07T23:56:05.337Z,48.5
